CheckWX is a tool to help pilots better visualize weather data.  It is not intended as a substitute for an official pre-flight weather briefing.

02:58:42 UTC

KRUE METAR
Russellville Regional Airport
Russellville, Arkansas, USA
Current

1 hour ago

KRUE 020153Z AUTO 10004KT 10SM CLR 17/06 A2997 RMK AO2 SLP144 T01720061
Observed
Apr-2 @ 01:53 UTC
Wind
  • 100° at 4 KTS
Visibility
10 SM
Flight Rules
VFR
Cloud Levels
  • Clear skies
Temperature
17°C / 63°F
Dewpoint
C / 43°F
Humidity
49%
Altimeter
29.97" Hg
Pressure
1014.92 hPa
Previous

2 hours ago

KRUE 020053Z AUTO VRB04KT 10SM CLR 18/06 A2996 RMK AO2 SLP139 T01830061
Observed
Apr-2 @ 00:53 UTC
Wind
  • Variable at 4 KTS
Visibility
10 SM
Flight Rules
VFR
Cloud Levels
  • Clear skies
Temperature
18°C / 64°F
Dewpoint
C / 43°F
Humidity
46%
Altimeter
29.96" Hg
Pressure
1014.52 hPa
Previous

3 hours ago

KRUE 012353Z AUTO 10005KT 10SM CLR 19/07 A2996 RMK AO2 SLP139 T01940067 10228 20194 55002
Observed
Apr-1 @ 23:53 UTC
Wind
  • 100° at 5 KTS
Visibility
10 SM
Flight Rules
VFR
Cloud Levels
  • Clear skies
Temperature
19°C / 66°F
Dewpoint
C / 45°F
Humidity
46%
Altimeter
29.96" Hg
Pressure
1014.52 hPa